sensor_id;sensor_type;location;lat;lon;timestamp;P1;durP1;ratioP1;P2;durP2;ratioP2
19301;SDS011;9785;59.362;12.152;2024-03-08T00:00:55;2.87;;;2.43;;
19301;SDS011;9785;59.362;12.152;2024-03-08T00:03:26;3.23;;;2.47;;
19301;SDS011;9785;59.362;12.152;2024-03-08T00:05:55;6.87;;;2.60;;
19301;SDS011;9785;59.362;12.152;2024-03-08T00:08:24;3.90;;;2.10;;
19301;SDS011;9785;59.362;12.152;2024-03-08T00:10:52;6.97;;;2.53;;
19301;SDS011;9785;59.362;12.152;2024-03-08T00:13:21;3.97;;;2.50;;
19301;SDS011;9785;59.362;12.152;2024-03-08T00:15:53;2.43;;;2.23;;
19301;SDS011;9785;59.362;12.152;2024-03-08T00:18:24;3.20;;;2.50;;
19301;SDS011;9785;59.362;12.152;2024-03-08T00:20:53;3.17;;;2.17;;
19301;SDS011;9785;59.362;12.152;2024-03-08T00:23:22;5.20;;;2.70;;
19301;SDS011;9785;59.362;12.152;2024-03-08T00:25:51;4.57;;;2.70;;
19301;SDS011;9785;59.362;12.152;2024-03-08T00:28:20;6.47;;;2.57;;
19301;SDS011;9785;59.362;12.152;2024-03-08T00:30:53;5.37;;;2.30;;
19301;SDS011;9785;59.362;12.152;2024-03-08T00:33:21;6.40;;;2.60;;
19301;SDS011;9785;59.362;12.152;2024-03-08T00:35:50;5.33;;;2.50;;
19301;SDS011;9785;59.362;12.152;2024-03-08T00:38:19;3.50;;;2.40;;
19301;SDS011;9785;59.362;12.152;2024-03-08T00:40:47;3.60;;;2.50;;
19301;SDS011;9785;59.362;12.152;2024-03-08T00:43:16;4.63;;;2.90;;
19301;SDS011;9785;59.362;12.152;2024-03-08T00:45:44;6.10;;;2.80;;
19301;SDS011;9785;59.362;12.152;2024-03-08T00:48:15;4.60;;;2.53;;
19301;SDS011;9785;59.362;12.152;2024-03-08T00:50:43;3.90;;;2.60;;
19301;SDS011;9785;59.362;12.152;2024-03-08T00:53:13;3.43;;;2.47;;
19301;SDS011;9785;59.362;12.152;2024-03-08T00:55:41;4.23;;;2.50;;
19301;SDS011;9785;59.362;12.152;2024-03-08T00:58:12;4.20;;;2.53;;
19301;SDS011;9785;59.362;12.152;2024-03-08T01:00:41;4.90;;;2.43;;
19301;SDS011;9785;59.362;12.152;2024-03-08T01:03:11;5.13;;;2.80;;
19301;SDS011;9785;59.362;12.152;2024-03-08T01:05:41;5.33;;;2.50;;
19301;SDS011;9785;59.362;12.152;2024-03-08T01:08:10;2.53;;;2.17;;
19301;SDS011;9785;59.362;12.152;2024-03-08T01:10:39;2.90;;;2.50;;
19301;SDS011;9785;59.362;12.152;2024-03-08T01:13:07;4.63;;;2.30;;
19301;SDS011;9785;59.362;12.152;2024-03-08T01:15:36;2.87;;;2.33;;
19301;SDS011;9785;59.362;12.152;2024-03-08T01:18:08;3.60;;;2.50;;
19301;SDS011;9785;59.362;12.152;2024-03-08T01:20:37;4.53;;;2.57;;
19301;SDS011;9785;59.362;12.152;2024-03-08T01:23:08;3.73;;;2.13;;
19301;SDS011;9785;59.362;12.152;2024-03-08T01:25:36;4.77;;;2.47;;
19301;SDS011;9785;59.362;12.152;2024-03-08T01:28:05;3.57;;;2.17;;
19301;SDS011;9785;59.362;12.152;2024-03-08T01:30:34;3.00;;;2.17;;
19301;SDS011;9785;59.362;12.152;2024-03-08T01:33:04;2.70;;;1.93;;
19301;SDS011;9785;59.362;12.152;2024-03-08T01:35:33;5.00;;;1.93;;
19301;SDS011;9785;59.362;12.152;2024-03-08T01:38:02;3.27;;;1.70;;
19301;SDS011;9785;59.362;12.152;2024-03-08T01:40:32;7.07;;;2.50;;
19301;SDS011;9785;59.362;12.152;2024-03-08T01:43:15;3.63;;;2.33;;
19301;SDS011;9785;59.362;12.152;2024-03-08T01:45:46;2.03;;;1.80;;
19301;SDS011;9785;59.362;12.152;2024-03-08T01:48:15;5.27;;;1.80;;
19301;SDS011;9785;59.362;12.152;2024-03-08T01:50:48;3.87;;;2.07;;
19301;SDS011;9785;59.362;12.152;2024-03-08T01:53:17;3.03;;;1.90;;
19301;SDS011;9785;59.362;12.152;2024-03-08T01:55:48;2.47;;;1.97;;
19301;SDS011;9785;59.362;12.152;2024-03-08T01:58:18;2.33;;;1.80;;
19301;SDS011;9785;59.362;12.152;2024-03-08T02:00:48;6.23;;;2.27;;
19301;SDS011;9785;59.362;12.152;2024-03-08T02:03:17;5.90;;;1.70;;
19301;SDS011;9785;59.362;12.152;2024-03-08T02:05:46;2.57;;;1.97;;
19301;SDS011;9785;59.362;12.152;2024-03-08T02:08:14;7.03;;;1.90;;
19301;SDS011;9785;59.362;12.152;2024-03-08T02:10:44;1.90;;;1.67;;
19301;SDS011;9785;59.362;12.152;2024-03-08T02:13:14;2.33;;;1.63;;
19301;SDS011;9785;59.362;12.152;2024-03-08T02:15:52;5.43;;;1.87;;
19301;SDS011;9785;59.362;12.152;2024-03-08T02:18:21;2.97;;;1.47;;
19301;SDS011;9785;59.362;12.152;2024-03-08T02:20:52;2.67;;;1.73;;
19301;SDS011;9785;59.362;12.152;2024-03-08T02:23:21;1.77;;;1.67;;
19301;SDS011;9785;59.362;12.152;2024-03-08T02:25:50;2.13;;;1.70;;
19301;SDS011;9785;59.362;12.152;2024-03-08T02:28:19;1.90;;;1.70;;
19301;SDS011;9785;59.362;12.152;2024-03-08T02:30:48;2.93;;;1.70;;
19301;SDS011;9785;59.362;12.152;2024-03-08T02:33:17;1.73;;;1.63;;
19301;SDS011;9785;59.362;12.152;2024-03-08T02:35:46;1.87;;;1.70;;
19301;SDS011;9785;59.362;12.152;2024-03-08T02:38:17;2.20;;;1.93;;
19301;SDS011;9785;59.362;12.152;2024-03-08T02:40:46;3.13;;;1.80;;
19301;SDS011;9785;59.362;12.152;2024-03-08T02:43:15;2.83;;;1.80;;
19301;SDS011;9785;59.362;12.152;2024-03-08T02:45:44;1.83;;;1.63;;
19301;SDS011;9785;59.362;12.152;2024-03-08T02:48:13;1.63;;;1.37;;
19301;SDS011;9785;59.362;12.152;2024-03-08T02:50:43;6.07;;;1.93;;
19301;SDS011;9785;59.362;12.152;2024-03-08T02:53:12;4.17;;;1.80;;
19301;SDS011;9785;59.362;12.152;2024-03-08T02:55:42;1.30;;;1.20;;
19301;SDS011;9785;59.362;12.152;2024-03-08T02:58:11;3.27;;;2.33;;
19301;SDS011;9785;59.362;12.152;2024-03-08T03:00:41;3.83;;;1.80;;
19301;SDS011;9785;59.362;12.152;2024-03-08T03:03:11;2.77;;;1.73;;
19301;SDS011;9785;59.362;12.152;2024-03-08T03:05:40;1.50;;;1.40;;
19301;SDS011;9785;59.362;12.152;2024-03-08T03:08:14;4.70;;;1.77;;
19301;SDS011;9785;59.362;12.152;2024-03-08T03:10:45;2.63;;;1.77;;
19301;SDS011;9785;59.362;12.152;2024-03-08T03:13:14;2.30;;;1.70;;
19301;SDS011;9785;59.362;12.152;2024-03-08T03:15:42;3.10;;;1.90;;
19301;SDS011;9785;59.362;12.152;2024-03-08T03:18:11;1.60;;;1.50;;
19301;SDS011;9785;59.362;12.152;2024-03-08T03:20:40;2.97;;;1.83;;
19301;SDS011;9785;59.362;12.152;2024-03-08T03:23:10;3.07;;;1.70;;
19301;SDS011;9785;59.362;12.152;2024-03-08T03:25:42;1.63;;;1.40;;
19301;SDS011;9785;59.362;12.152;2024-03-08T03:28:14;3.63;;;1.50;;
19301;SDS011;9785;59.362;12.152;2024-03-08T03:30:44;1.80;;;1.40;;
19301;SDS011;9785;59.362;12.152;2024-03-08T03:33:14;2.00;;;1.67;;
19301;SDS011;9785;59.362;12.152;2024-03-08T03:35:44;2.70;;;1.60;;
19301;SDS011;9785;59.362;12.152;2024-03-08T03:38:12;2.33;;;1.83;;
19301;SDS011;9785;59.362;12.152;2024-03-08T03:40:41;1.83;;;1.50;;
19301;SDS011;9785;59.362;12.152;2024-03-08T03:43:11;2.90;;;1.63;;
19301;SDS011;9785;59.362;12.152;2024-03-08T03:45:41;2.43;;;1.63;;
19301;SDS011;9785;59.362;12.152;2024-03-08T03:48:10;2.60;;;1.67;;
19301;SDS011;9785;59.362;12.152;2024-03-08T03:50:39;2.17;;;1.37;;
19301;SDS011;9785;59.362;12.152;2024-03-08T03:53:08;2.30;;;1.50;;
19301;SDS011;9785;59.362;12.152;2024-03-08T03:55:37;2.10;;;1.40;;
19301;SDS011;9785;59.362;12.152;2024-03-08T03:58:07;1.37;;;1.27;;
19301;SDS011;9785;59.362;12.152;2024-03-08T04:00:37;2.73;;;1.97;;
19301;SDS011;9785;59.362;12.152;2024-03-08T04:03:08;2.60;;;1.60;;
19301;SDS011;9785;59.362;12.152;2024-03-08T04:05:37;1.97;;;1.70;;
19301;SDS011;9785;59.362;12.152;2024-03-08T04:08:05;2.90;;;1.57;;
19301;SDS011;9785;59.362;12.152;2024-03-08T04:10:34;1.90;;;1.73;;
19301;SDS011;9785;59.362;12.152;2024-03-08T04:13:03;2.03;;;1.67;;
19301;SDS011;9785;59.362;12.152;2024-03-08T04:15:31;2.50;;;1.67;;
19301;SDS011;9785;59.362;12.152;2024-03-08T04:18:00;2.17;;;1.33;;
19301;SDS011;9785;59.362;12.152;2024-03-08T04:20:30;1.73;;;1.53;;
19301;SDS011;9785;59.362;12.152;2024-03-08T04:22:59;2.17;;;1.53;;
19301;SDS011;9785;59.362;12.152;2024-03-08T04:25:27;1.60;;;1.50;;
19301;SDS011;9785;59.362;12.152;2024-03-08T04:27:57;10.33;;;1.80;;
19301;SDS011;9785;59.362;12.152;2024-03-08T04:30:25;4.70;;;1.40;;
19301;SDS011;9785;59.362;12.152;2024-03-08T04:32:55;5.90;;;1.40;;
19301;SDS011;9785;59.362;12.152;2024-03-08T04:35:23;5.33;;;1.60;;
19301;SDS011;9785;59.362;12.152;2024-03-08T04:37:55;1.70;;;1.40;;
19301;SDS011;9785;59.362;12.152;2024-03-08T04:40:24;2.27;;;1.60;;
19301;SDS011;9785;59.362;12.152;2024-03-08T04:42:53;2.23;;;1.70;;
19301;SDS011;9785;59.362;12.152;2024-03-08T04:45:21;9.73;;;2.07;;
19301;SDS011;9785;59.362;12.152;2024-03-08T04:47:52;6.63;;;1.87;;
19301;SDS011;9785;59.362;12.152;2024-03-08T04:50:21;3.97;;;1.77;;
19301;SDS011;9785;59.362;12.152;2024-03-08T04:52:50;5.47;;;1.67;;
19301;SDS011;9785;59.362;12.152;2024-03-08T04:55:20;3.93;;;1.67;;
19301;SDS011;9785;59.362;12.152;2024-03-08T04:57:49;2.97;;;1.20;;
19301;SDS011;9785;59.362;12.152;2024-03-08T05:00:18;7.37;;;1.60;;
19301;SDS011;9785;59.362;12.152;2024-03-08T05:02:47;5.23;;;1.57;;
19301;SDS011;9785;59.362;12.152;2024-03-08T05:05:20;5.10;;;1.77;;
19301;SDS011;9785;59.362;12.152;2024-03-08T05:07:49;2.57;;;1.60;;
19301;SDS011;9785;59.362;12.152;2024-03-08T05:10:18;2.87;;;2.00;;
19301;SDS011;9785;59.362;12.152;2024-03-08T05:12:48;7.47;;;1.50;;
19301;SDS011;9785;59.362;12.152;2024-03-08T05:15:20;4.03;;;1.40;;
19301;SDS011;9785;59.362;12.152;2024-03-08T05:17:48;6.20;;;1.80;;
19301;SDS011;9785;59.362;12.152;2024-03-08T05:20:17;19.67;;;2.40;;
19301;SDS011;9785;59.362;12.152;2024-03-08T05:22:46;9.57;;;1.87;;
19301;SDS011;9785;59.362;12.152;2024-03-08T05:25:15;5.23;;;1.83;;
19301;SDS011;9785;59.362;12.152;2024-03-08T05:27:44;4.07;;;1.80;;
19301;SDS011;9785;59.362;12.152;2024-03-08T05:30:15;2.20;;;1.60;;
19301;SDS011;9785;59.362;12.152;2024-03-08T05:32:43;5.87;;;1.90;;
19301;SDS011;9785;59.362;12.152;2024-03-08T05:35:11;1.80;;;1.67;;
19301;SDS011;9785;59.362;12.152;2024-03-08T05:37:44;4.77;;;1.70;;
19301;SDS011;9785;59.362;12.152;2024-03-08T05:40:13;7.30;;;1.90;;
19301;SDS011;9785;59.362;12.152;2024-03-08T05:42:45;9.90;;;2.20;;
19301;SDS011;9785;59.362;12.152;2024-03-08T05:45:15;14.00;;;2.10;;
19301;SDS011;9785;59.362;12.152;2024-03-08T05:47:44;17.83;;;2.53;;
19301;SDS011;9785;59.362;12.152;2024-03-08T05:50:13;10.07;;;1.80;;
19301;SDS011;9785;59.362;12.152;2024-03-08T05:52:42;6.13;;;1.53;;
19301;SDS011;9785;59.362;12.152;2024-03-08T05:55:11;17.57;;;1.80;;
19301;SDS011;9785;59.362;12.152;2024-03-08T05:57:40;18.17;;;2.23;;
19301;SDS011;9785;59.362;12.152;2024-03-08T06:00:10;11.60;;;2.00;;
19301;SDS011;9785;59.362;12.152;2024-03-08T06:02:43;12.67;;;2.03;;
19301;SDS011;9785;59.362;12.152;2024-03-08T06:05:12;7.10;;;1.80;;
19301;SDS011;9785;59.362;12.152;2024-03-08T06:07:41;9.23;;;1.80;;
19301;SDS011;9785;59.362;12.152;2024-03-08T06:10:09;6.70;;;1.80;;
19301;SDS011;9785;59.362;12.152;2024-03-08T06:12:39;6.40;;;1.90;;
19301;SDS011;9785;59.362;12.152;2024-03-08T06:15:09;2.63;;;1.50;;
19301;SDS011;9785;59.362;12.152;2024-03-08T06:17:41;6.40;;;2.17;;
19301;SDS011;9785;59.362;12.152;2024-03-08T06:20:12;5.53;;;1.77;;
19301;SDS011;9785;59.362;12.152;2024-03-08T06:22:41;9.63;;;2.03;;
19301;SDS011;9785;59.362;12.152;2024-03-08T06:25:11;7.83;;;1.70;;
19301;SDS011;9785;59.362;12.152;2024-03-08T06:27:40;7.93;;;1.70;;
19301;SDS011;9785;59.362;12.152;2024-03-08T06:30:09;5.63;;;1.70;;
19301;SDS011;9785;59.362;12.152;2024-03-08T06:32:38;9.10;;;1.50;;
19301;SDS011;9785;59.362;12.152;2024-03-08T06:35:09;5.13;;;1.90;;
19301;SDS011;9785;59.362;12.152;2024-03-08T06:37:39;4.77;;;1.80;;
19301;SDS011;9785;59.362;12.152;2024-03-08T06:40:11;4.23;;;1.63;;
19301;SDS011;9785;59.362;12.152;2024-03-08T06:42:41;21.07;;;1.90;;
19301;SDS011;9785;59.362;12.152;2024-03-08T06:45:10;41.47;;;3.27;;
19301;SDS011;9785;59.362;12.152;2024-03-08T06:47:39;19.33;;;2.17;;
19301;SDS011;9785;59.362;12.152;2024-03-08T06:50:10;13.73;;;2.80;;
19301;SDS011;9785;59.362;12.152;2024-03-08T06:52:40;9.60;;;2.17;;
19301;SDS011;9785;59.362;12.152;2024-03-08T06:55:11;9.70;;;2.00;;
19301;SDS011;9785;59.362;12.152;2024-03-08T06:57:39;7.17;;;2.17;;
19301;SDS011;9785;59.362;12.152;2024-03-08T07:00:09;5.87;;;2.00;;
19301;SDS011;9785;59.362;12.152;2024-03-08T07:02:40;8.40;;;1.90;;
19301;SDS011;9785;59.362;12.152;2024-03-08T07:05:12;4.67;;;1.90;;
19301;SDS011;9785;59.362;12.152;2024-03-08T07:07:42;6.47;;;1.80;;
19301;SDS011;9785;59.362;12.152;2024-03-08T07:10:11;17.20;;;2.43;;
19301;SDS011;9785;59.362;12.152;2024-03-08T07:12:41;28.20;;;3.10;;
19301;SDS011;9785;59.362;12.152;2024-03-08T07:15:10;9.67;;;2.27;;
19301;SDS011;9785;59.362;12.152;2024-03-08T07:17:40;4.23;;;1.83;;
19301;SDS011;9785;59.362;12.152;2024-03-08T07:20:11;18.50;;;2.10;;
19301;SDS011;9785;59.362;12.152;2024-03-08T07:22:43;11.33;;;2.13;;
19301;SDS011;9785;59.362;12.152;2024-03-08T07:25:14;2.43;;;2.00;;
19301;SDS011;9785;59.362;12.152;2024-03-08T07:27:48;9.07;;;2.27;;
19301;SDS011;9785;59.362;12.152;2024-03-08T07:30:18;6.20;;;2.30;;
19301;SDS011;9785;59.362;12.152;2024-03-08T07:33:04;11.40;;;2.27;;
19301;SDS011;9785;59.362;12.152;2024-03-08T07:35:34;10.37;;;2.33;;
19301;SDS011;9785;59.362;12.152;2024-03-08T07:38:05;5.27;;;1.90;;
19301;SDS011;9785;59.362;12.152;2024-03-08T07:40:35;21.10;;;2.80;;
19301;SDS011;9785;59.362;12.152;2024-03-08T07:43:05;9.47;;;2.23;;
19301;SDS011;9785;59.362;12.152;2024-03-08T07:45:34;6.07;;;2.23;;
19301;SDS011;9785;59.362;12.152;2024-03-08T07:48:03;7.77;;;2.40;;
19301;SDS011;9785;59.362;12.152;2024-03-08T07:50:36;2.93;;;2.10;;
19301;SDS011;9785;59.362;12.152;2024-03-08T07:53:07;5.17;;;2.23;;
19301;SDS011;9785;59.362;12.152;2024-03-08T07:55:36;6.83;;;2.07;;
19301;SDS011;9785;59.362;12.152;2024-03-08T07:58:06;6.63;;;2.20;;
19301;SDS011;9785;59.362;12.152;2024-03-08T08:00:37;4.63;;;2.20;;
19301;SDS011;9785;59.362;12.152;2024-03-08T08:03:06;8.57;;;2.00;;
19301;SDS011;9785;59.362;12.152;2024-03-08T08:05:35;3.10;;;1.90;;
19301;SDS011;9785;59.362;12.152;2024-03-08T08:08:05;5.20;;;2.60;;
19301;SDS011;9785;59.362;12.152;2024-03-08T08:10:39;7.17;;;2.47;;
19301;SDS011;9785;59.362;12.152;2024-03-08T08:13:08;2.80;;;2.50;;
19301;SDS011;9785;59.362;12.152;2024-03-08T08:15:37;5.43;;;2.20;;
19301;SDS011;9785;59.362;12.152;2024-03-08T08:18:06;4.70;;;2.30;;
19301;SDS011;9785;59.362;12.152;2024-03-08T08:20:36;2.90;;;1.83;;
19301;SDS011;9785;59.362;12.152;2024-03-08T08:23:05;3.20;;;1.93;;
19301;SDS011;9785;59.362;12.152;2024-03-08T08:25:34;2.80;;;1.87;;
19301;SDS011;9785;59.362;12.152;2024-03-08T08:28:04;5.03;;;2.30;;
19301;SDS011;9785;59.362;12.152;2024-03-08T08:30:33;13.07;;;2.20;;
19301;SDS011;9785;59.362;12.152;2024-03-08T08:33:01;9.63;;;2.10;;
19301;SDS011;9785;59.362;12.152;2024-03-08T08:35:32;4.07;;;2.33;;
19301;SDS011;9785;59.362;12.152;2024-03-08T08:38:00;2.93;;;2.00;;
19301;SDS011;9785;59.362;12.152;2024-03-08T08:40:30;4.50;;;2.00;;
19301;SDS011;9785;59.362;12.152;2024-03-08T08:42:59;3.57;;;1.80;;
19301;SDS011;9785;59.362;12.152;2024-03-08T08:45:32;11.30;;;2.10;;
19301;SDS011;9785;59.362;12.152;2024-03-08T08:48:01;1.80;;;1.70;;
19301;SDS011;9785;59.362;12.152;2024-03-08T08:50:32;3.70;;;1.90;;
19301;SDS011;9785;59.362;12.152;2024-03-08T08:53:00;2.17;;;1.90;;
19301;SDS011;9785;59.362;12.152;2024-03-08T08:55:30;5.67;;;2.03;;
19301;SDS011;9785;59.362;12.152;2024-03-08T08:58:02;6.43;;;1.67;;
19301;SDS011;9785;59.362;12.152;2024-03-08T09:00:32;2.73;;;1.70;;
19301;SDS011;9785;59.362;12.152;2024-03-08T09:03:01;3.63;;;1.90;;
19301;SDS011;9785;59.362;12.152;2024-03-08T09:05:29;3.13;;;1.83;;
19301;SDS011;9785;59.362;12.152;2024-03-08T09:08:01;5.83;;;1.73;;
19301;SDS011;9785;59.362;12.152;2024-03-08T09:10:30;5.10;;;1.27;;
19301;SDS011;9785;59.362;12.152;2024-03-08T09:13:00;1.27;;;1.27;;
19301;SDS011;9785;59.362;12.152;2024-03-08T09:15:30;1.40;;;1.20;;
19301;SDS011;9785;59.362;12.152;2024-03-08T09:18:02;2.33;;;1.20;;
19301;SDS011;9785;59.362;12.152;2024-03-08T09:20:32;6.13;;;1.27;;
19301;SDS011;9785;59.362;12.152;2024-03-08T09:23:01;2.30;;;1.20;;
19301;SDS011;9785;59.362;12.152;2024-03-08T09:25:30;1.17;;;1.07;;
19301;SDS011;9785;59.362;12.152;2024-03-08T09:27:59;1.47;;;1.37;;
19301;SDS011;9785;59.362;12.152;2024-03-08T09:30:28;4.00;;;1.27;;
19301;SDS011;9785;59.362;12.152;2024-03-08T09:32:57;2.43;;;1.37;;
19301;SDS011;9785;59.362;12.152;2024-03-08T09:35:27;2.83;;;1.20;;
19301;SDS011;9785;59.362;12.152;2024-03-08T09:37:56;2.97;;;1.40;;
19301;SDS011;9785;59.362;12.152;2024-03-08T09:40:25;1.50;;;1.20;;
19301;SDS011;9785;59.362;12.152;2024-03-08T09:42:54;1.80;;;1.30;;
19301;SDS011;9785;59.362;12.152;2024-03-08T09:45:23;1.10;;;1.00;;
19301;SDS011;9785;59.362;12.152;2024-03-08T09:47:53;1.30;;;1.20;;
19301;SDS011;9785;59.362;12.152;2024-03-08T09:50:23;1.10;;;1.10;;
19301;SDS011;9785;59.362;12.152;2024-03-08T09:52:55;1.67;;;1.10;;
19301;SDS011;9785;59.362;12.152;2024-03-08T09:55:25;1.07;;;0.97;;
19301;SDS011;9785;59.362;12.152;2024-03-08T09:57:58;1.20;;;1.20;;
19301;SDS011;9785;59.362;12.152;2024-03-08T10:00:45;1.80;;;1.30;;
19301;SDS011;9785;59.362;12.152;2024-03-08T10:03:13;1.60;;;1.30;;
19301;SDS011;9785;59.362;12.152;2024-03-08T10:05:42;3.40;;;1.70;;
19301;SDS011;9785;59.362;12.152;2024-03-08T10:08:13;3.20;;;1.27;;
19301;SDS011;9785;59.362;12.152;2024-03-08T10:10:41;1.40;;;1.30;;
19301;SDS011;9785;59.362;12.152;2024-03-08T10:13:10;2.20;;;1.40;;
19301;SDS011;9785;59.362;12.152;2024-03-08T10:15:40;4.30;;;1.83;;
19301;SDS011;9785;59.362;12.152;2024-03-08T10:18:10;1.30;;;1.20;;
19301;SDS011;9785;59.362;12.152;2024-03-08T10:20:38;1.50;;;1.30;;
19301;SDS011;9785;59.362;12.152;2024-03-08T10:23:07;1.20;;;1.20;;
19301;SDS011;9785;59.362;12.152;2024-03-08T10:25:39;2.60;;;1.30;;
19301;SDS011;9785;59.362;12.152;2024-03-08T10:28:08;4.43;;;1.60;;
19301;SDS011;9785;59.362;12.152;2024-03-08T10:30:37;4.57;;;1.50;;
19301;SDS011;9785;59.362;12.152;2024-03-08T10:33:06;1.10;;;1.10;;
19301;SDS011;9785;59.362;12.152;2024-03-08T10:35:34;1.23;;;1.07;;
19301;SDS011;9785;59.362;12.152;2024-03-08T10:38:03;3.87;;;1.43;;
19301;SDS011;9785;59.362;12.152;2024-03-08T10:40:34;1.33;;;1.20;;
19301;SDS011;9785;59.362;12.152;2024-03-08T10:43:06;2.13;;;1.13;;
19301;SDS011;9785;59.362;12.152;2024-03-08T10:45:37;2.70;;;1.20;;
19301;SDS011;9785;59.362;12.152;2024-03-08T10:48:12;2.90;;;1.00;;
19301;SDS011;9785;59.362;12.152;2024-03-08T10:50:46;2.20;;;1.10;;
19301;SDS011;9785;59.362;12.152;2024-03-08T10:53:17;1.00;;;1.00;;
19301;SDS011;9785;59.362;12.152;2024-03-08T10:55:47;1.43;;;1.03;;
19301;SDS011;9785;59.362;12.152;2024-03-08T10:58:21;3.67;;;1.23;;
19301;SDS011;9785;59.362;12.152;2024-03-08T11:00:53;2.30;;;1.27;;
19301;SDS011;9785;59.362;12.152;2024-03-08T11:06:13;1.03;;;1.03;;
19301;SDS011;9785;59.362;12.152;2024-03-08T11:08:43;1.30;;;1.20;;
19301;SDS011;9785;59.362;12.152;2024-03-08T11:11:25;2.27;;;0.97;;
19301;SDS011;9785;59.362;12.152;2024-03-08T11:14:01;1.83;;;0.97;;
19301;SDS011;9785;59.362;12.152;2024-03-08T11:16:40;2.10;;;1.23;;
19301;SDS011;9785;59.362;12.152;2024-03-08T11:19:25;1.20;;;1.17;;
19301;SDS011;9785;59.362;12.152;2024-03-08T11:21:59;1.53;;;0.93;;
19301;SDS011;9785;59.362;12.152;2024-03-08T11:24:28;1.10;;;1.10;;
19301;SDS011;9785;59.362;12.152;2024-03-08T11:27:06;1.10;;;1.10;;
19301;SDS011;9785;59.362;12.152;2024-03-08T11:29:38;1.97;;;1.20;;
19301;SDS011;9785;59.362;12.152;2024-03-08T11:32:07;3.43;;;1.20;;
19301;SDS011;9785;59.362;12.152;2024-03-08T11:34:37;1.00;;;1.00;;
19301;SDS011;9785;59.362;12.152;2024-03-08T11:37:06;1.63;;;1.20;;
19301;SDS011;9785;59.362;12.152;2024-03-08T11:39:39;3.37;;;1.37;;
19301;SDS011;9785;59.362;12.152;2024-03-08T11:42:08;3.13;;;1.10;;
19301;SDS011;9785;59.362;12.152;2024-03-08T11:44:39;1.30;;;1.20;;
19301;SDS011;9785;59.362;12.152;2024-03-08T11:47:10;3.53;;;1.00;;
19301;SDS011;9785;59.362;12.152;2024-03-08T11:49:43;2.03;;;1.10;;
19301;SDS011;9785;59.362;12.152;2024-03-08T11:52:15;1.20;;;1.07;;
19301;SDS011;9785;59.362;12.152;2024-03-08T11:54:48;2.73;;;1.10;;
19301;SDS011;9785;59.362;12.152;2024-03-08T11:57:17;1.00;;;1.00;;
19301;SDS011;9785;59.362;12.152;2024-03-08T11:59:50;1.03;;;1.00;;
19301;SDS011;9785;59.362;12.152;2024-03-08T12:02:23;1.80;;;1.10;;
19301;SDS011;9785;59.362;12.152;2024-03-08T12:04:55;3.57;;;1.23;;
19301;SDS011;9785;59.362;12.152;2024-03-08T12:07:27;1.23;;;1.10;;
19301;SDS011;9785;59.362;12.152;2024-03-08T12:10:14;1.13;;;1.10;;
19301;SDS011;9785;59.362;12.152;2024-03-08T12:12:44;1.60;;;1.50;;
19301;SDS011;9785;59.362;12.152;2024-03-08T12:15:16;2.67;;;1.10;;
19301;SDS011;9785;59.362;12.152;2024-03-08T12:17:45;1.30;;;1.20;;
19301;SDS011;9785;59.362;12.152;2024-03-08T12:20:16;1.27;;;1.20;;
19301;SDS011;9785;59.362;12.152;2024-03-08T12:22:45;3.23;;;1.37;;
19301;SDS011;9785;59.362;12.152;2024-03-08T12:25:14;1.20;;;1.07;;
19301;SDS011;9785;59.362;12.152;2024-03-08T12:27:43;1.10;;;1.10;;
19301;SDS011;9785;59.362;12.152;2024-03-08T12:30:20;1.37;;;1.10;;
19301;SDS011;9785;59.362;12.152;2024-03-08T12:32:53;3.13;;;0.90;;
19301;SDS011;9785;59.362;12.152;2024-03-08T12:35:24;3.20;;;1.30;;
19301;SDS011;9785;59.362;12.152;2024-03-08T12:37:54;1.87;;;1.30;;
19301;SDS011;9785;59.362;12.152;2024-03-08T12:40:25;2.00;;;1.10;;
19301;SDS011;9785;59.362;12.152;2024-03-08T12:42:55;1.17;;;1.13;;
19301;SDS011;9785;59.362;12.152;2024-03-08T12:45:25;2.77;;;1.97;;
19301;SDS011;9785;59.362;12.152;2024-03-08T12:47:54;3.13;;;1.23;;
19301;SDS011;9785;59.362;12.152;2024-03-08T12:50:23;1.90;;;1.10;;
19301;SDS011;9785;59.362;12.152;2024-03-08T12:52:52;3.53;;;1.20;;
19301;SDS011;9785;59.362;12.152;2024-03-08T12:55:22;3.27;;;1.10;;
19301;SDS011;9785;59.362;12.152;2024-03-08T12:57:51;2.73;;;1.10;;
19301;SDS011;9785;59.362;12.152;2024-03-08T13:00:19;1.27;;;1.17;;
19301;SDS011;9785;59.362;12.152;2024-03-08T13:02:51;1.80;;;1.20;;
19301;SDS011;9785;59.362;12.152;2024-03-08T13:05:20;2.10;;;1.13;;
19301;SDS011;9785;59.362;12.152;2024-03-08T13:07:49;1.63;;;1.10;;
19301;SDS011;9785;59.362;12.152;2024-03-08T13:10:20;2.53;;;1.30;;
19301;SDS011;9785;59.362;12.152;2024-03-08T13:12:49;2.10;;;1.47;;
19301;SDS011;9785;59.362;12.152;2024-03-08T13:15:20;1.57;;;1.30;;
19301;SDS011;9785;59.362;12.152;2024-03-08T13:17:49;1.43;;;1.13;;
19301;SDS011;9785;59.362;12.152;2024-03-08T13:20:19;2.03;;;1.20;;
19301;SDS011;9785;59.362;12.152;2024-03-08T13:22:59;1.50;;;1.40;;
19301;SDS011;9785;59.362;12.152;2024-03-08T13:25:28;2.17;;;1.23;;
19301;SDS011;9785;59.362;12.152;2024-03-08T13:27:57;1.50;;;1.40;;
19301;SDS011;9785;59.362;12.152;2024-03-08T13:30:27;2.47;;;1.40;;
19301;SDS011;9785;59.362;12.152;2024-03-08T13:32:57;1.30;;;1.30;;
19301;SDS011;9785;59.362;12.152;2024-03-08T13:35:27;1.10;;;1.10;;
19301;SDS011;9785;59.362;12.152;2024-03-08T13:37:57;2.43;;;1.23;;
19301;SDS011;9785;59.362;12.152;2024-03-08T13:40:26;1.30;;;1.20;;
19301;SDS011;9785;59.362;12.152;2024-03-08T13:42:55;2.77;;;1.53;;
19301;SDS011;9785;59.362;12.152;2024-03-08T13:45:24;0.93;;;0.93;;
19301;SDS011;9785;59.362;12.152;2024-03-08T13:47:53;1.70;;;1.17;;
19301;SDS011;9785;59.362;12.152;2024-03-08T13:50:22;1.87;;;1.40;;
19301;SDS011;9785;59.362;12.152;2024-03-08T13:52:53;1.83;;;1.10;;
19301;SDS011;9785;59.362;12.152;2024-03-08T13:55:23;1.70;;;1.50;;
19301;SDS011;9785;59.362;12.152;2024-03-08T13:57:54;1.33;;;1.27;;
19301;SDS011;9785;59.362;12.152;2024-03-08T14:00:24;1.83;;;1.33;;
19301;SDS011;9785;59.362;12.152;2024-03-08T14:02:54;2.20;;;1.23;;
19301;SDS011;9785;59.362;12.152;2024-03-08T14:05:23;1.13;;;1.13;;
19301;SDS011;9785;59.362;12.152;2024-03-08T14:07:53;1.47;;;1.37;;
19301;SDS011;9785;59.362;12.152;2024-03-08T14:10:22;1.90;;;1.27;;
19301;SDS011;9785;59.362;12.152;2024-03-08T14:12:51;3.13;;;1.50;;
19301;SDS011;9785;59.362;12.152;2024-03-08T14:15:20;1.80;;;1.30;;
19301;SDS011;9785;59.362;12.152;2024-03-08T14:17:52;1.60;;;1.20;;
19301;SDS011;9785;59.362;12.152;2024-03-08T14:20:21;2.90;;;2.00;;
19301;SDS011;9785;59.362;12.152;2024-03-08T14:22:54;1.33;;;1.27;;
19301;SDS011;9785;59.362;12.152;2024-03-08T14:25:23;2.10;;;1.20;;
19301;SDS011;9785;59.362;12.152;2024-03-08T14:27:53;2.77;;;1.43;;
19301;SDS011;9785;59.362;12.152;2024-03-08T14:30:25;1.30;;;1.30;;
19301;SDS011;9785;59.362;12.152;2024-03-08T14:33:02;1.47;;;1.37;;
19301;SDS011;9785;59.362;12.152;2024-03-08T14:35:32;1.20;;;1.10;;
19301;SDS011;9785;59.362;12.152;2024-03-08T14:38:03;0.90;;;0.90;;
19301;SDS011;9785;59.362;12.152;2024-03-08T14:40:35;2.17;;;1.30;;
19301;SDS011;9785;59.362;12.152;2024-03-08T14:43:05;1.43;;;1.30;;
19301;SDS011;9785;59.362;12.152;2024-03-08T14:45:33;3.83;;;1.20;;
19301;SDS011;9785;59.362;12.152;2024-03-08T14:48:03;1.70;;;1.60;;
19301;SDS011;9785;59.362;12.152;2024-03-08T14:50:32;1.63;;;1.40;;
19301;SDS011;9785;59.362;12.152;2024-03-08T14:53:05;1.70;;;1.10;;
19301;SDS011;9785;59.362;12.152;2024-03-08T14:55:33;1.50;;;1.40;;
19301;SDS011;9785;59.362;12.152;2024-03-08T14:58:02;1.20;;;1.13;;
19301;SDS011;9785;59.362;12.152;2024-03-08T15:00:31;1.33;;;1.30;;
19301;SDS011;9785;59.362;12.152;2024-03-08T15:03:02;1.60;;;1.30;;
19301;SDS011;9785;59.362;12.152;2024-03-08T15:05:33;2.27;;;1.23;;
19301;SDS011;9785;59.362;12.152;2024-03-08T15:08:07;4.73;;;1.50;;